Ducos, Argentina
Current Conditions -  °F | °C
As of 9:00 AM on Friday 31 Oct 2014 (Local Time) from SAZM Reporting Station
Clear Clear  
Wind Chill: 14°   Ceiling: Unl
Heat Index: 14°   Visibility: 6mi
Dew Point:   Wind: 7mph
Humidity: 38%   Direction: 230°SW
Pressure: 30.03"   Gusts: NA
Location:  37.47°S, 62.42°W
Report Text: SAZM 311200Z 23006KT CAVOK 14/00 Q1017
Loading
Personal Weather Stations






























Interactive Weather Map
Tropical Storm Tracking
New forecast layout! Learn more

10-Day Weather Forecast

Advertisements
Track Severe Weather on mobile